DLH439 ENBR-EDDW
Flight info
| Callsign | DLH439 |
|---|---|
| Flight time | 1h 24m |
| Altitude | 37000 |
| Route | TUXIL DCT ZOL DCT ATTUS DCT BADOS DCT OMWEG Y348 ELSOB N125 WSN L23 GIBMA GIBMA2P |
| Aircraft | A319/M-SDE3FGHIRWY/LB1 |
Departure
| Time | 2026-05-06 18:32 |
|---|---|
| Airport | Bergen Airport, Flesland (ENBR) |
Arrival
| Time | 2026-05-06 19:56 |
|---|---|
| Airport | Bremen Airport (EDDW) |
| Time | Latitude | Longitude | Altitude | Speed | Heading |
|---|---|---|---|---|---|
| 2026-05-06 17:14 | 60.28781 | 5.22894 | 176 ft | 0 kts | 80° |
| 2026-05-06 17:46 | 60.28778 | 5.22862 | 176 ft | 4 kts | 76° |
| 2026-05-06 17:46 | 60.28771 | 5.22810 | 175 ft | 4 kts | 67° |
| 2026-05-06 17:46 | 60.28758 | 5.22763 | 175 ft | 4 kts | 49° |
| 2026-05-06 17:47 | 60.28739 | 5.22735 | 175 ft | 4 kts | 360° |
| 2026-05-06 17:47 | 60.28734 | 5.22735 | 174 ft | 0 kts | 352° |
| 2026-05-06 17:49 | 60.28738 | 5.22729 | 175 ft | 2 kts | 329° |
| 2026-05-06 17:49 | 60.28735 | 5.22685 | 175 ft | 6 kts | 246° |
| 2026-05-06 17:49 | 60.28713 | 5.22558 | 174 ft | 13 kts | 259° |
| 2026-05-06 17:49 | 60.28702 | 5.22336 | 168 ft | 21 kts | 319° |
| 2026-05-06 17:50 | 60.28854 | 5.22301 | 171 ft | 23 kts | 351° |
| 2026-05-06 17:50 | 60.28991 | 5.22250 | 173 ft | 20 kts | 351° |
| 2026-05-06 17:50 | 60.29124 | 5.22211 | 173 ft | 20 kts | 351° |
| 2026-05-06 17:50 | 60.29279 | 5.22151 | 165 ft | 26 kts | 349° |
| 2026-05-06 17:51 | 60.29478 | 5.22089 | 157 ft | 32 kts | 350° |
| 2026-05-06 17:51 | 60.29707 | 5.22009 | 150 ft | 34 kts | 350° |
| 2026-05-06 17:51 | 60.29929 | 5.21935 | 155 ft | 28 kts | 351° |
| 2026-05-06 17:51 | 60.30112 | 5.21875 | 163 ft | 25 kts | 351° |
| 2026-05-06 17:52 | 60.30564 | 5.21729 | 182 ft | 189 kts | 351° |
| 2026-05-06 17:53 | 60.28781 | 5.22894 | 176 ft | 0 kts | 80° |
| 2026-05-06 18:17 | 60.28780 | 5.22881 | 176 ft | 4 kts | 77° |
| 2026-05-06 18:17 | 60.28772 | 5.22830 | 175 ft | 4 kts | 60° |
| 2026-05-06 18:17 | 60.28756 | 5.22787 | 175 ft | 4 kts | 41° |
| 2026-05-06 18:17 | 60.28734 | 5.22757 | 175 ft | 4 kts | 22° |
| 2026-05-06 18:18 | 60.28709 | 5.22744 | 174 ft | 4 kts | 357° |
| 2026-05-06 18:18 | 60.28701 | 5.22745 | 173 ft | 0 kts | 351° |
| 2026-05-06 18:20 | 60.28702 | 5.22745 | 173 ft | 0 kts | 349° |
| 2026-05-06 18:20 | 60.28711 | 5.22734 | 174 ft | 4 kts | 329° |
| 2026-05-06 18:21 | 60.28722 | 5.22659 | 174 ft | 6 kts | 268° |
| 2026-05-06 18:21 | 60.28718 | 5.22601 | 174 ft | 0 kts | 263° |
| 2026-05-06 18:21 | 60.28718 | 5.22600 | 174 ft | 1 kts | 263° |
| 2026-05-06 18:22 | 60.28716 | 5.22567 | 174 ft | 5 kts | 262° |
| 2026-05-06 18:22 | 60.28732 | 5.22474 | 173 ft | 10 kts | 324° |
| 2026-05-06 18:22 | 60.28813 | 5.22434 | 175 ft | 14 kts | 349° |
| 2026-05-06 18:22 | 60.28931 | 5.22392 | 175 ft | 20 kts | 350° |
| 2026-05-06 18:23 | 60.29026 | 5.22362 | 176 ft | 10 kts | 352° |
| 2026-05-06 18:23 | 60.29079 | 5.22292 | 176 ft | 10 kts | 285° |
| 2026-05-06 18:23 | 60.29142 | 5.22201 | 172 ft | 15 kts | 351° |
| 2026-05-06 18:23 | 60.29262 | 5.22161 | 166 ft | 20 kts | 351° |
| 2026-05-06 18:24 | 60.29417 | 5.22111 | 159 ft | 24 kts | 351° |
| 2026-05-06 18:24 | 60.29580 | 5.22055 | 154 ft | 24 kts | 350° |
| 2026-05-06 18:24 | 60.29733 | 5.22001 | 149 ft | 21 kts | 350° |
| 2026-05-06 18:24 | 60.29876 | 5.21951 | 153 ft | 20 kts | 350° |
| 2026-05-06 18:25 | 60.30003 | 5.21909 | 158 ft | 18 kts | 351° |
| 2026-05-06 18:25 | 60.30121 | 5.21871 | 163 ft | 17 kts | 351° |
| 2026-05-06 18:25 | 60.30242 | 5.21832 | 168 ft | 17 kts | 351° |
| 2026-05-06 18:25 | 60.30353 | 5.21793 | 173 ft | 18 kts | 350° |
| 2026-05-06 18:26 | 60.30485 | 5.21748 | 179 ft | 18 kts | 350° |
| 2026-05-06 18:26 | 60.30602 | 5.21711 | 192 ft | 12 kts | 351° |
| 2026-05-06 18:26 | 60.30606 | 5.21710 | 189 ft | 0 kts | 351° |
| 2026-05-06 18:28 | 60.30607 | 5.21710 | 189 ft | 1 kts | 351° |
| 2026-05-06 18:28 | 60.30619 | 5.21704 | 196 ft | 4 kts | 347° |
| 2026-05-06 18:28 | 60.30659 | 5.21631 | 181 ft | 12 kts | 290° |
| 2026-05-06 18:28 | 60.30660 | 5.21578 | 180 ft | 0 kts | 265° |
| 2026-05-06 18:29 | 60.30660 | 5.21577 | 180 ft | 1 kts | 265° |
| 2026-05-06 18:29 | 60.30657 | 5.21523 | 178 ft | 7 kts | 262° |
| 2026-05-06 18:30 | 60.30632 | 5.21419 | 178 ft | 10 kts | 219° |
| 2026-05-06 18:30 | 60.30558 | 5.21409 | 177 ft | 13 kts | 170° |
| 2026-05-06 18:30 | 60.30541 | 5.21415 | 177 ft | 0 kts | 169° |
| 2026-05-06 18:31 | 60.30539 | 5.21416 | 177 ft | 7 kts | 169° |
| 2026-05-06 18:31 | 60.30199 | 5.21533 | 166 ft | 89 kts | 171° |
| 2026-05-06 18:31 | 60.29369 | 5.21809 | 156 ft | 152 kts | 171° |
| 2026-05-06 18:31 | 60.28268 | 5.22220 | 622 ft | 164 kts | 169° |
| 2026-05-06 18:32 | 60.27086 | 5.22690 | 1198 ft | 178 kts | 171° |
| 2026-05-06 18:32 | 60.25842 | 5.23164 | 1771 ft | 191 kts | 171° |
| 2026-05-06 18:32 | 60.24493 | 5.23664 | 2356 ft | 203 kts | 173° |
| 2026-05-06 18:32 | 60.23007 | 5.24127 | 2793 ft | 228 kts | 174° |
| 2026-05-06 18:33 | 60.21356 | 5.24611 | 3340 ft | 252 kts | 173° |
| 2026-05-06 18:33 | 60.19575 | 5.25145 | 4182 ft | 263 kts | 173° |
| 2026-05-06 18:33 | 60.17753 | 5.25714 | 5219 ft | 267 kts | 173° |
| 2026-05-06 18:33 | 60.15893 | 5.26310 | 5791 ft | 272 kts | 173° |
| 2026-05-06 18:34 | 60.14025 | 5.26922 | 6021 ft | 273 kts | 173° |
| 2026-05-06 18:34 | 60.12143 | 5.27544 | 6987 ft | 274 kts | 173° |
| 2026-05-06 18:34 | 60.10249 | 5.28172 | 7978 ft | 278 kts | 173° |
| 2026-05-06 18:34 | 60.08321 | 5.28794 | 8933 ft | 282 kts | 174° |
| 2026-05-06 18:35 | 60.06361 | 5.29352 | 9882 ft | 287 kts | 175° |
| 2026-05-06 18:35 | 60.04333 | 5.29888 | 10422 ft | 305 kts | 176° |
| 2026-05-06 18:35 | 60.02144 | 5.30445 | 10783 ft | 327 kts | 176° |
| 2026-05-06 18:35 | 59.99840 | 5.31032 | 11433 ft | 338 kts | 177° |
| 2026-05-06 18:36 | 59.97493 | 5.31642 | 12268 ft | 342 kts | 178° |
| 2026-05-06 18:36 | 59.95123 | 5.32271 | 13121 ft | 346 kts | 178° |
| 2026-05-06 18:36 | 59.92720 | 5.32914 | 14001 ft | 349 kts | 179° |
| 2026-05-06 18:36 | 59.90301 | 5.33561 | 14763 ft | 352 kts | 179° |
| 2026-05-06 18:37 | 59.87861 | 5.34212 | 15533 ft | 355 kts | 179° |
| 2026-05-06 18:37 | 59.85404 | 5.34868 | 16289 ft | 358 kts | 180° |
| 2026-05-06 18:37 | 59.82946 | 5.35517 | 16867 ft | 362 kts | 180° |
| 2026-05-06 18:37 | 59.80414 | 5.36188 | 17028 ft | 362 kts | 180° |
| 2026-05-06 18:38 | 59.77935 | 5.36765 | 17424 ft | 364 kts | 182° |
| 2026-05-06 18:38 | 59.75417 | 5.37217 | 18217 ft | 364 kts | 183° |
| 2026-05-06 18:38 | 59.72887 | 5.37603 | 18882 ft | 366 kts | 184° |
| 2026-05-06 18:38 | 59.70365 | 5.37974 | 19168 ft | 355 kts | 184° |
| 2026-05-06 18:39 | 59.67952 | 5.38354 | 19289 ft | 346 kts | 184° |
| 2026-05-06 18:39 | 59.65490 | 5.38724 | 19473 ft | 363 kts | 184° |
| 2026-05-06 18:39 | 59.62934 | 5.39157 | 19951 ft | 372 kts | 182° |
| 2026-05-06 18:40 | 59.57716 | 5.40431 | 21159 ft | 382 kts | 180° |
| 2026-05-06 18:40 | 59.55073 | 5.41159 | 21735 ft | 386 kts | 180° |
| 2026-05-06 18:40 | 59.52398 | 5.41892 | 22347 ft | 389 kts | 181° |
| 2026-05-06 18:40 | 59.49703 | 5.42611 | 22950 ft | 393 kts | 181° |
| 2026-05-06 18:41 | 59.46984 | 5.43317 | 23465 ft | 396 kts | 180° |
| 2026-05-06 18:41 | 59.44278 | 5.44004 | 23953 ft | 399 kts | 180° |
| 2026-05-06 18:41 | 59.41517 | 5.44695 | 24459 ft | 401 kts | 180° |
| 2026-05-06 18:41 | 59.38746 | 5.45435 | 24978 ft | 404 kts | 179° |
| 2026-05-06 18:42 | 59.35965 | 5.46349 | 25487 ft | 407 kts | 178° |
| 2026-05-06 18:42 | 59.33177 | 5.47385 | 26000 ft | 409 kts | 177° |
| 2026-05-06 18:42 | 59.30377 | 5.48478 | 26502 ft | 410 kts | 176° |
| 2026-05-06 18:42 | 59.27577 | 5.49571 | 27002 ft | 411 kts | 177° |
| 2026-05-06 18:43 | 59.24762 | 5.50646 | 27492 ft | 412 kts | 177° |
| 2026-05-06 18:43 | 59.21939 | 5.51693 | 27977 ft | 414 kts | 178° |
| 2026-05-06 18:43 | 59.19100 | 5.52726 | 28383 ft | 415 kts | 177° |
| 2026-05-06 18:43 | 59.16247 | 5.53756 | 28789 ft | 418 kts | 177° |
| 2026-05-06 18:44 | 59.13374 | 5.54791 | 29210 ft | 420 kts | 177° |
| 2026-05-06 18:44 | 59.10485 | 5.55826 | 29639 ft | 422 kts | 178° |
| 2026-05-06 18:44 | 59.07622 | 5.56849 | 30043 ft | 424 kts | 178° |
| 2026-05-06 18:44 | 59.04672 | 5.57900 | 30388 ft | 427 kts | 178° |
| 2026-05-06 18:45 | 59.01778 | 5.58931 | 30679 ft | 430 kts | 177° |
| 2026-05-06 18:45 | 58.98823 | 5.59983 | 30953 ft | 433 kts | 177° |
| 2026-05-06 18:45 | 58.95844 | 5.61040 | 31221 ft | 436 kts | 177° |
| 2026-05-06 18:45 | 58.92846 | 5.62104 | 31482 ft | 440 kts | 177° |
| 2026-05-06 18:46 | 58.89823 | 5.63181 | 31716 ft | 442 kts | 176° |
| 2026-05-06 18:46 | 58.86824 | 5.64757 | 32067 ft | 451 kts | 167° |
| 2026-05-06 18:46 | 58.83918 | 5.67183 | 32414 ft | 457 kts | 161° |
| 2026-05-06 18:46 | 58.81029 | 5.69770 | 32797 ft | 457 kts | 161° |
| 2026-05-06 18:47 | 58.78141 | 5.72343 | 33182 ft | 457 kts | 161° |
| 2026-05-06 18:47 | 58.75252 | 5.74901 | 33549 ft | 457 kts | 162° |
| 2026-05-06 18:47 | 58.72386 | 5.77420 | 33916 ft | 458 kts | 162° |
| 2026-05-06 18:47 | 58.69487 | 5.79957 | 34239 ft | 458 kts | 162° |
| 2026-05-06 18:48 | 58.66586 | 5.82490 | 34558 ft | 458 kts | 161° |
| 2026-05-06 18:48 | 58.63680 | 5.85027 | 34852 ft | 458 kts | 161° |
| 2026-05-06 18:48 | 58.60775 | 5.87569 | 35144 ft | 458 kts | 161° |
| 2026-05-06 18:48 | 58.57877 | 5.90104 | 35416 ft | 459 kts | 161° |
| 2026-05-06 18:49 | 58.54971 | 5.92639 | 35685 ft | 459 kts | 161° |
| 2026-05-06 18:49 | 58.52067 | 5.95167 | 35954 ft | 459 kts | 161° |
| 2026-05-06 18:49 | 58.49157 | 5.97701 | 36218 ft | 459 kts | 161° |
| 2026-05-06 18:49 | 58.46254 | 6.00223 | 36471 ft | 459 kts | 161° |
| 2026-05-06 18:50 | 58.43343 | 6.02745 | 36710 ft | 459 kts | 161° |
| 2026-05-06 18:50 | 58.40440 | 6.05255 | 36952 ft | 459 kts | 161° |
| 2026-05-06 18:50 | 58.37531 | 6.07761 | 37038 ft | 458 kts | 161° |
| 2026-05-06 18:51 | 58.31723 | 6.12743 | 37026 ft | 456 kts | 161° |
| 2026-05-06 18:51 | 58.25944 | 6.17697 | 37046 ft | 455 kts | 160° |
| 2026-05-06 18:52 | 58.20179 | 6.22621 | 37044 ft | 453 kts | 161° |
| 2026-05-06 18:52 | 58.14460 | 6.27477 | 37044 ft | 453 kts | 161° |
| 2026-05-06 18:53 | 58.08703 | 6.32358 | 37036 ft | 453 kts | 161° |
| 2026-05-06 18:53 | 58.02942 | 6.37230 | 37008 ft | 453 kts | 161° |
| 2026-05-06 18:54 | 57.97177 | 6.42087 | 37025 ft | 453 kts | 161° |
| 2026-05-06 18:54 | 57.91417 | 6.46920 | 37031 ft | 453 kts | 161° |
| 2026-05-06 18:55 | 57.85658 | 6.51734 | 37037 ft | 453 kts | 161° |
| 2026-05-06 18:55 | 57.79899 | 6.56533 | 37029 ft | 452 kts | 161° |
| 2026-05-06 18:56 | 57.74174 | 6.61289 | 37000 ft | 452 kts | 161° |
| 2026-05-06 18:56 | 57.68426 | 6.66043 | 37011 ft | 451 kts | 161° |
| 2026-05-06 18:57 | 57.62676 | 6.70767 | 37027 ft | 450 kts | 161° |
| 2026-05-06 18:57 | 57.56927 | 6.75481 | 37029 ft | 450 kts | 161° |
| 2026-05-06 18:58 | 57.51202 | 6.80176 | 37034 ft | 450 kts | 161° |
| 2026-05-06 18:58 | 57.45502 | 6.84831 | 37012 ft | 449 kts | 161° |
| 2026-05-06 18:59 | 57.39775 | 6.89475 | 37027 ft | 449 kts | 161° |
| 2026-05-06 18:59 | 57.34038 | 6.94112 | 37027 ft | 449 kts | 161° |
| 2026-05-06 19:00 | 57.28318 | 6.98747 | 37030 ft | 449 kts | 161° |
| 2026-05-06 19:00 | 57.22602 | 7.03363 | 37034 ft | 448 kts | 161° |
| 2026-05-06 19:01 | 57.16873 | 7.07951 | 37010 ft | 448 kts | 161° |
| 2026-05-06 19:01 | 57.11147 | 7.12511 | 37017 ft | 448 kts | 161° |
| 2026-05-06 19:02 | 57.05444 | 7.17059 | 37036 ft | 446 kts | 161° |
| 2026-05-06 19:02 | 56.99778 | 7.21571 | 37042 ft | 446 kts | 161° |
| 2026-05-06 19:03 | 56.94074 | 7.26082 | 37044 ft | 445 kts | 161° |
| 2026-05-06 19:03 | 56.88390 | 7.30553 | 37021 ft | 445 kts | 161° |
| 2026-05-06 19:04 | 56.82711 | 7.35013 | 37032 ft | 444 kts | 161° |
| 2026-05-06 19:04 | 56.77029 | 7.39466 | 37036 ft | 444 kts | 161° |
| 2026-05-06 19:05 | 56.71351 | 7.43897 | 37040 ft | 444 kts | 161° |
| 2026-05-06 19:05 | 56.65679 | 7.48321 | 37033 ft | 443 kts | 162° |
| 2026-05-06 19:06 | 56.60031 | 7.52704 | 37007 ft | 443 kts | 161° |
| 2026-05-06 19:06 | 56.54365 | 7.57075 | 37016 ft | 442 kts | 162° |
| 2026-05-06 19:07 | 56.48699 | 7.61433 | 37029 ft | 442 kts | 162° |
| 2026-05-06 19:07 | 56.43038 | 7.65790 | 37031 ft | 441 kts | 162° |
| 2026-05-06 19:08 | 56.37378 | 7.70117 | 37030 ft | 441 kts | 162° |
| 2026-05-06 19:08 | 56.31731 | 7.74434 | 37010 ft | 441 kts | 161° |
| 2026-05-06 19:09 | 56.26087 | 7.78739 | 37010 ft | 440 kts | 162° |
| 2026-05-06 19:09 | 56.20485 | 7.82992 | 37008 ft | 440 kts | 162° |
| 2026-05-06 19:10 | 56.14846 | 7.87239 | 37007 ft | 439 kts | 162° |
| 2026-05-06 19:10 | 56.09198 | 7.91487 | 37007 ft | 439 kts | 162° |
| 2026-05-06 19:11 | 56.03552 | 7.95730 | 36987 ft | 440 kts | 161° |
| 2026-05-06 19:11 | 55.98865 | 7.99250 | 36984 ft | 439 kts | 161° |
| 2026-05-06 19:12 | 55.93227 | 8.03467 | 36996 ft | 439 kts | 161° |
| 2026-05-06 19:12 | 55.87587 | 8.07658 | 37002 ft | 439 kts | 161° |
| 2026-05-06 19:13 | 55.81943 | 8.11845 | 37007 ft | 439 kts | 162° |
| 2026-05-06 19:13 | 55.76294 | 8.16012 | 37006 ft | 439 kts | 162° |
| 2026-05-06 19:14 | 55.71066 | 8.19878 | 36993 ft | 439 kts | 161° |
| 2026-05-06 19:14 | 55.65422 | 8.24043 | 36997 ft | 439 kts | 162° |
| 2026-05-06 19:15 | 55.59819 | 8.28142 | 36993 ft | 438 kts | 162° |
| 2026-05-06 19:15 | 55.54175 | 8.32253 | 36976 ft | 438 kts | 162° |
| 2026-05-06 19:16 | 55.48537 | 8.36352 | 36940 ft | 438 kts | 161° |
| 2026-05-06 19:16 | 55.42901 | 8.40448 | 36954 ft | 438 kts | 162° |
| 2026-05-06 19:17 | 55.37292 | 8.44509 | 36959 ft | 438 kts | 162° |
| 2026-05-06 19:17 | 55.31655 | 8.48577 | 36963 ft | 438 kts | 162° |
| 2026-05-06 19:18 | 55.26004 | 8.52643 | 36963 ft | 438 kts | 162° |
| 2026-05-06 19:18 | 55.20353 | 8.56687 | 36950 ft | 438 kts | 162° |
| 2026-05-06 19:19 | 55.14705 | 8.60740 | 36948 ft | 439 kts | 161° |
| 2026-05-06 19:19 | 55.09059 | 8.64779 | 36952 ft | 438 kts | 162° |
| 2026-05-06 19:20 | 55.03391 | 8.68800 | 36819 ft | 440 kts | 162° |
| 2026-05-06 19:20 | 55.00596 | 8.70780 | 36382 ft | 438 kts | 162° |
| 2026-05-06 19:20 | 54.97778 | 8.72771 | 35742 ft | 437 kts | 162° |
| 2026-05-06 19:20 | 54.94960 | 8.74762 | 35087 ft | 436 kts | 161° |
| 2026-05-06 19:21 | 54.92155 | 8.76740 | 34499 ft | 435 kts | 161° |
| 2026-05-06 19:21 | 54.89356 | 8.78708 | 34015 ft | 431 kts | 161° |
| 2026-05-06 19:21 | 54.86591 | 8.80615 | 33520 ft | 425 kts | 162° |
| 2026-05-06 19:21 | 54.83845 | 8.82466 | 32975 ft | 420 kts | 162° |
| 2026-05-06 19:22 | 54.81125 | 8.84278 | 32462 ft | 416 kts | 162° |
| 2026-05-06 19:22 | 54.78438 | 8.86067 | 31954 ft | 411 kts | 163° |
| 2026-05-06 19:22 | 54.75780 | 8.87837 | 31456 ft | 407 kts | 163° |
| 2026-05-06 19:22 | 54.73141 | 8.89592 | 30976 ft | 403 kts | 163° |
| 2026-05-06 19:23 | 54.70536 | 8.91332 | 30483 ft | 399 kts | 163° |
| 2026-05-06 19:23 | 54.67960 | 8.93057 | 30024 ft | 395 kts | 163° |
| 2026-05-06 19:23 | 54.65408 | 8.94767 | 29449 ft | 392 kts | 162° |
| 2026-05-06 19:23 | 54.62873 | 8.96458 | 28892 ft | 389 kts | 162° |
| 2026-05-06 19:24 | 54.60359 | 8.98125 | 28350 ft | 386 kts | 162° |
| 2026-05-06 19:24 | 54.57888 | 8.99760 | 27834 ft | 383 kts | 162° |
| 2026-05-06 19:24 | 54.55402 | 9.01407 | 27318 ft | 381 kts | 162° |
| 2026-05-06 19:24 | 54.52938 | 9.03040 | 26835 ft | 379 kts | 162° |
| 2026-05-06 19:25 | 54.50482 | 9.04665 | 26351 ft | 377 kts | 162° |
| 2026-05-06 19:25 | 54.48041 | 9.06277 | 25898 ft | 375 kts | 162° |
| 2026-05-06 19:25 | 54.45602 | 9.07884 | 25449 ft | 373 kts | 162° |
| 2026-05-06 19:25 | 54.43184 | 9.09472 | 25034 ft | 370 kts | 162° |
| 2026-05-06 19:26 | 54.40778 | 9.11050 | 24892 ft | 370 kts | 162° |
| 2026-05-06 19:26 | 54.38386 | 9.12616 | 24928 ft | 376 kts | 161° |
| 2026-05-06 19:26 | 54.36006 | 9.14517 | 24928 ft | 380 kts | 153° |
| 2026-05-06 19:26 | 54.33725 | 9.16810 | 24929 ft | 380 kts | 152° |
| 2026-05-06 19:27 | 54.31439 | 9.19109 | 24926 ft | 381 kts | 152° |
| 2026-05-06 19:27 | 54.29146 | 9.21397 | 24917 ft | 380 kts | 152° |
| 2026-05-06 19:27 | 54.26855 | 9.23676 | 24917 ft | 380 kts | 152° |
| 2026-05-06 19:27 | 54.24536 | 9.25831 | 24911 ft | 378 kts | 160° |
| 2026-05-06 19:28 | 54.22058 | 9.27280 | 24921 ft | 377 kts | 165° |
| 2026-05-06 19:28 | 54.19562 | 9.28660 | 24920 ft | 377 kts | 165° |
| 2026-05-06 19:28 | 54.17065 | 9.30027 | 24917 ft | 377 kts | 165° |
| 2026-05-06 19:28 | 54.14568 | 9.31382 | 24917 ft | 377 kts | 165° |
| 2026-05-06 19:29 | 54.12071 | 9.32735 | 24911 ft | 377 kts | 164° |
| 2026-05-06 19:29 | 54.09568 | 9.34091 | 24917 ft | 378 kts | 164° |
| 2026-05-06 19:29 | 54.07093 | 9.35437 | 24912 ft | 378 kts | 164° |
| 2026-05-06 19:29 | 54.04548 | 9.36822 | 24912 ft | 378 kts | 164° |
| 2026-05-06 19:30 | 54.02076 | 9.38167 | 24915 ft | 378 kts | 164° |
| 2026-05-06 19:30 | 53.99565 | 9.39529 | 24915 ft | 378 kts | 164° |
| 2026-05-06 19:30 | 53.97063 | 9.40885 | 24912 ft | 378 kts | 164° |
| 2026-05-06 19:30 | 53.94556 | 9.42242 | 24912 ft | 378 kts | 164° |
| 2026-05-06 19:31 | 53.92047 | 9.43595 | 24909 ft | 378 kts | 164° |
| 2026-05-06 19:31 | 53.89539 | 9.44944 | 24909 ft | 378 kts | 165° |
| 2026-05-06 19:31 | 53.84533 | 9.47633 | 24906 ft | 377 kts | 164° |
| 2026-05-06 19:32 | 53.82022 | 9.48981 | 24911 ft | 377 kts | 164° |
| 2026-05-06 19:32 | 53.79521 | 9.50322 | 24848 ft | 375 kts | 164° |
| 2026-05-06 19:32 | 53.77039 | 9.51650 | 24409 ft | 373 kts | 164° |
| 2026-05-06 19:32 | 53.74568 | 9.52969 | 23958 ft | 371 kts | 164° |
| 2026-05-06 19:33 | 53.72111 | 9.54243 | 23503 ft | 368 kts | 168° |
| 2026-05-06 19:33 | 53.69600 | 9.54915 | 23003 ft | 363 kts | 179° |
| 2026-05-06 19:33 | 53.67095 | 9.54751 | 22510 ft | 358 kts | 191° |
| 2026-05-06 19:33 | 53.64785 | 9.53354 | 22026 ft | 352 kts | 213° |
| 2026-05-06 19:34 | 53.62968 | 9.50666 | 21551 ft | 347 kts | 231° |
| 2026-05-06 19:34 | 53.61499 | 9.47430 | 21040 ft | 346 kts | 234° |
| 2026-05-06 19:34 | 53.60073 | 9.44181 | 20564 ft | 344 kts | 234° |
| 2026-05-06 19:34 | 53.58674 | 9.40983 | 20126 ft | 342 kts | 234° |
| 2026-05-06 19:35 | 53.57271 | 9.37768 | 19696 ft | 340 kts | 234° |
| 2026-05-06 19:35 | 53.55874 | 9.34567 | 19271 ft | 338 kts | 234° |
| 2026-05-06 19:35 | 53.54473 | 9.31394 | 18808 ft | 337 kts | 234° |
| 2026-05-06 19:35 | 53.53074 | 9.28237 | 18397 ft | 336 kts | 234° |
| 2026-05-06 19:36 | 53.51686 | 9.25104 | 17959 ft | 334 kts | 234° |
| 2026-05-06 19:36 | 53.50299 | 9.21976 | 17502 ft | 332 kts | 234° |
| 2026-05-06 19:36 | 53.48917 | 9.18868 | 17062 ft | 331 kts | 234° |
| 2026-05-06 19:36 | 53.47541 | 9.15786 | 16641 ft | 329 kts | 234° |
| 2026-05-06 19:37 | 53.46171 | 9.12722 | 16215 ft | 327 kts | 234° |
| 2026-05-06 19:37 | 53.44826 | 9.09717 | 15762 ft | 325 kts | 234° |
| 2026-05-06 19:37 | 53.43472 | 9.06691 | 15122 ft | 325 kts | 234° |
| 2026-05-06 19:37 | 53.42552 | 9.04646 | 14840 ft | 324 kts | 234° |
| 2026-05-06 19:38 | 53.40752 | 9.00683 | 14331 ft | 322 kts | 233° |
| 2026-05-06 19:38 | 53.39393 | 8.97676 | 13911 ft | 323 kts | 234° |
| 2026-05-06 19:38 | 53.38038 | 8.94678 | 13483 ft | 323 kts | 234° |
| 2026-05-06 19:38 | 53.36682 | 8.91682 | 13049 ft | 322 kts | 234° |
| 2026-05-06 19:39 | 53.35332 | 8.88708 | 12625 ft | 321 kts | 234° |
| 2026-05-06 19:39 | 53.33981 | 8.85737 | 12228 ft | 319 kts | 234° |
| 2026-05-06 19:39 | 53.32648 | 8.82794 | 11926 ft | 317 kts | 234° |
| 2026-05-06 19:39 | 53.31319 | 8.79848 | 11904 ft | 318 kts | 234° |
| 2026-05-06 19:40 | 53.29983 | 8.76899 | 11910 ft | 319 kts | 234° |
| 2026-05-06 19:40 | 53.28662 | 8.73996 | 11622 ft | 316 kts | 234° |
| 2026-05-06 19:40 | 53.27313 | 8.71055 | 11272 ft | 313 kts | 234° |
| 2026-05-06 19:40 | 53.26008 | 8.68217 | 10895 ft | 310 kts | 234° |
| 2026-05-06 19:41 | 53.24695 | 8.65358 | 10508 ft | 309 kts | 234° |
| 2026-05-06 19:41 | 53.23397 | 8.62523 | 10254 ft | 302 kts | 234° |
| 2026-05-06 19:41 | 53.22139 | 8.59775 | 10065 ft | 294 kts | 234° |
| 2026-05-06 19:41 | 53.20903 | 8.57075 | 9743 ft | 291 kts | 234° |
| 2026-05-06 19:42 | 53.19679 | 8.54394 | 9349 ft | 290 kts | 234° |
| 2026-05-06 19:42 | 53.18465 | 8.51727 | 8954 ft | 288 kts | 234° |
| 2026-05-06 19:42 | 53.17256 | 8.49060 | 8557 ft | 287 kts | 234° |
| 2026-05-06 19:42 | 53.16073 | 8.46440 | 8146 ft | 286 kts | 234° |
| 2026-05-06 19:43 | 53.14884 | 8.43789 | 7732 ft | 285 kts | 234° |
| 2026-05-06 19:43 | 53.14023 | 8.40861 | 7314 ft | 282 kts | 257° |
| 2026-05-06 19:43 | 53.13691 | 8.37656 | 6905 ft | 280 kts | 263° |
| 2026-05-06 19:43 | 53.13437 | 8.34507 | 6768 ft | 268 kts | 264° |
| 2026-05-06 19:44 | 53.13199 | 8.31489 | 6638 ft | 257 kts | 264° |
| 2026-05-06 19:44 | 53.12973 | 8.28621 | 6512 ft | 243 kts | 264° |
| 2026-05-06 19:44 | 53.12756 | 8.25887 | 6368 ft | 234 kts | 264° |
| 2026-05-06 19:44 | 53.12545 | 8.23215 | 6085 ft | 231 kts | 264° |
| 2026-05-06 19:45 | 53.12333 | 8.20565 | 5756 ft | 230 kts | 264° |
| 2026-05-06 19:45 | 53.12117 | 8.17921 | 5423 ft | 230 kts | 264° |
| 2026-05-06 19:45 | 53.11896 | 8.15275 | 5087 ft | 231 kts | 264° |
| 2026-05-06 19:45 | 53.11671 | 8.12627 | 4769 ft | 230 kts | 264° |
| 2026-05-06 19:46 | 53.11445 | 8.09989 | 4438 ft | 230 kts | 264° |
| 2026-05-06 19:46 | 53.11215 | 8.07357 | 4114 ft | 230 kts | 264° |
| 2026-05-06 19:46 | 53.10975 | 8.04764 | 3795 ft | 230 kts | 259° |
| 2026-05-06 19:46 | 53.10249 | 8.02436 | 3470 ft | 229 kts | 224° |
| 2026-05-06 19:47 | 53.08894 | 8.01178 | 3138 ft | 223 kts | 187° |
| 2026-05-06 19:47 | 53.07424 | 8.01442 | 2994 ft | 211 kts | 148° |
| 2026-05-06 19:47 | 53.06395 | 8.03048 | 2996 ft | 202 kts | 111° |
| 2026-05-06 19:47 | 53.06008 | 8.05257 | 2999 ft | 199 kts | 96° |
| 2026-05-06 19:48 | 53.05795 | 8.07537 | 2998 ft | 200 kts | 94° |
| 2026-05-06 19:48 | 53.05602 | 8.09913 | 2999 ft | 212 kts | 94° |
| 2026-05-06 19:48 | 53.05414 | 8.12369 | 3000 ft | 215 kts | 94° |
| 2026-05-06 19:48 | 53.05229 | 8.14835 | 3000 ft | 215 kts | 94° |
| 2026-05-06 19:49 | 53.05045 | 8.17306 | 2998 ft | 215 kts | 94° |
| 2026-05-06 19:49 | 53.04861 | 8.19780 | 2996 ft | 216 kts | 94° |
| 2026-05-06 19:49 | 53.04677 | 8.22259 | 2995 ft | 216 kts | 94° |
| 2026-05-06 19:49 | 53.04497 | 8.24703 | 2994 ft | 216 kts | 94° |
| 2026-05-06 19:50 | 53.04313 | 8.27200 | 3002 ft | 223 kts | 94° |
| 2026-05-06 19:50 | 53.04123 | 8.29834 | 2998 ft | 237 kts | 94° |
| 2026-05-06 19:50 | 53.03925 | 8.32584 | 2997 ft | 241 kts | 94° |
| 2026-05-06 19:50 | 53.03714 | 8.35348 | 2997 ft | 241 kts | 92° |
| 2026-05-06 19:51 | 53.03682 | 8.38093 | 2987 ft | 230 kts | 86° |
| 2026-05-06 19:51 | 53.03745 | 8.40650 | 2989 ft | 212 kts | 84° |
| 2026-05-06 19:51 | 53.03810 | 8.43013 | 2991 ft | 199 kts | 84° |
| 2026-05-06 19:51 | 53.03872 | 8.45304 | 3001 ft | 198 kts | 84° |
| 2026-05-06 19:52 | 53.03931 | 8.47559 | 3004 ft | 198 kts | 85° |
| 2026-05-06 19:52 | 53.03989 | 8.49840 | 3004 ft | 198 kts | 84° |
| 2026-05-06 19:52 | 53.04047 | 8.52128 | 2965 ft | 199 kts | 85° |
| 2026-05-06 19:52 | 53.04104 | 8.54420 | 2774 ft | 197 kts | 84° |
| 2026-05-06 19:53 | 53.04161 | 8.56693 | 2533 ft | 197 kts | 84° |
| 2026-05-06 19:53 | 53.04217 | 8.58958 | 2271 ft | 196 kts | 84° |
| 2026-05-06 19:53 | 53.04272 | 8.61217 | 2038 ft | 192 kts | 84° |
| 2026-05-06 19:53 | 53.04324 | 8.63395 | 1753 ft | 185 kts | 84° |
| 2026-05-06 19:54 | 53.04375 | 8.65512 | 1491 ft | 180 kts | 84° |
| 2026-05-06 19:54 | 53.04424 | 8.67545 | 1253 ft | 170 kts | 84° |
| 2026-05-06 19:54 | 53.04468 | 8.69434 | 1023 ft | 157 kts | 85° |
| 2026-05-06 19:54 | 53.04508 | 8.71139 | 824 ft | 142 kts | 85° |
| 2026-05-06 19:55 | 53.04549 | 8.72715 | 589 ft | 132 kts | 85° |
| 2026-05-06 19:55 | 53.04593 | 8.74198 | 374 ft | 126 kts | 85° |
| 2026-05-06 19:55 | 53.04622 | 8.75637 | 212 ft | 123 kts | 85° |
| 2026-05-06 19:55 | 53.04658 | 8.77056 | 67 ft | 122 kts | 84° |
| 2026-05-06 19:56 | 53.04690 | 8.78419 | 21 ft | 99 kts | 87° |
| 2026-05-06 19:56 | 53.04699 | 8.79074 | 21 ft | 26 kts | 89° |
| 2026-05-06 19:56 | 53.04775 | 8.79292 | 20 ft | 21 kts | 1° |
| 2026-05-06 19:56 | 53.04839 | 8.79293 | 21 ft | 8 kts | 5° |
| 2026-05-06 19:57 | 53.04868 | 8.79349 | 22 ft | 7 kts | 80° |
| 2026-05-06 19:57 | 53.04867 | 8.79408 | 22 ft | 8 kts | 91° |
| 2026-05-06 19:57 | 53.04868 | 8.79507 | 22 ft | 9 kts | 89° |
| 2026-05-06 19:57 | 53.04872 | 8.79621 | 24 ft | 11 kts | 86° |
| 2026-05-06 19:58 | 53.04875 | 8.79758 | 25 ft | 12 kts | 89° |
| 2026-05-06 19:58 | 53.04857 | 8.79929 | 23 ft | 18 kts | 127° |
| 2026-05-06 19:58 | 53.04745 | 8.79948 | 23 ft | 18 kts | 213° |
| 2026-05-06 19:58 | 53.04710 | 8.79749 | 18 ft | 20 kts | 269° |
| 2026-05-06 19:59 | 53.04704 | 8.79513 | 21 ft | 21 kts | 267° |
| 2026-05-06 19:59 | 53.04696 | 8.79254 | 19 ft | 24 kts | 267° |
| 2026-05-06 19:59 | 53.04691 | 8.78965 | 21 ft | 26 kts | 269° |
| 2026-05-06 19:59 | 53.04724 | 8.78676 | 19 ft | 28 kts | 329° |
| 2026-05-06 20:00 | 53.04804 | 8.78658 | 17 ft | 0 kts | 359° |
| 2026-05-06 20:00 | 53.04813 | 8.78657 | 17 ft | 5 kts | 359° |
| 2026-05-06 20:00 | 53.04883 | 8.78656 | 18 ft | 16 kts | 359° |
| 2026-05-06 20:01 | 53.05015 | 8.78600 | 18 ft | 22 kts | 324° |
| 2026-05-06 20:01 | 53.05140 | 8.78526 | 19 ft | 18 kts | 329° |
| 2026-05-06 20:01 | 53.05174 | 8.78539 | 18 ft | 0 kts | 51° |